Ana Sayfa
METAR-TAF:

METAR-TAF

Havaalanları :

Niş, Sırbistan

Enlem: 43-20N, Boylam: 021-54E, yükseklik: 202 m

Güncel hava durumu gözlemi

Rapor saat 15:00 UTC de 19 dakika önce yapıldı.
Rüzgar kuzeybatıdan 12 kt
Sıcaklık 12°C
Nem 32%
Basınç 1021 hPa
Görüş mesafesi 10 km veya daha fazla
1500 m altında bulut yok ve kümülonimbus yok

METAR: LYNI 241500Z 32012KT CAVOK 12/M04 Q1021 NOSIG

Saat: 16:19 (15:19 UTC)

Tahmin

Rapor saat 11:00 UTC de 4 saat ve 19 dakika önce yapıldı.
Ayın 24'si saat 12 UTC'den ayın 25'si saat 12 UTC'ye kadar geçerli Tahmin
Rüzgar kuzey/kuzeybatıdan 8 kt
Görüş mesafesi 10 km veya daha fazla

TAF: LYNI 241100Z 2412/2512 33008KT 9999 BKN40 TX18/2512Z TNN01/2505Z

4.000'den fazla havaalanı için hava durumu gözlemleri ve tahminleri (METAR ve TAF raporları).

Kullanılabilir istasyonlar harita üzerinde sarı ve kırmızı noktalarla gösterilir.

İstasyonun adını görmek için fareyi noktanın üzerinde gezdirin.

Sonrasında hava gözlem ve tahminlerini görmek için tıklayın.

Haritayı değiştirmek için: yaklaştırmak için siyah artı işaretli yeşil düğmeye ve uzaklaştırmak için de eksi işaretli düğmeye hızla tıklayın; bitişik haritalar için yeşil okları kullanın.


METAR-TAF: